Time;durP1;ratioP1;P1;durP2;ratioP2;P2;SDS_P1;SDS_P2;PMS_P1;PMS_P2;Temp;Humidity;BMP_temperature;BMP_pressure;BME280_temperature;BME280_humidity;BME280_pressure;Samples;Min_cycle;Max_cycle;Signal;HPM_P1;HPM_P2
2022/02/10 00:03:05;;;;;;;3.28;1.70;;;;;;;26.38;18.06;98862.59;4999681;28;20091;-83
2022/02/10 00:17:48;;;;;;;4.32;1.73;;;;;;;25.97;18.50;98862.13;4995847;28;20139;-84
2022/02/10 00:20:25;;;;;;;3.22;1.52;;;;;;;26.21;17.98;98877.78;4999204;28;20041;-83
2022/02/10 00:36:42;;;;;;;3.47;1.83;;;;;;;25.89;18.09;98871.91;5011727;28;20045;-83
2022/02/10 00:42:12;;;;;;;3.83;1.70;;;;;;;25.94;18.38;98869.41;5018213;28;20045;-83
2022/02/10 00:44:38;;;;;;;2.78;1.30;;;;;;;26.42;18.22;98868.94;5023649;28;20390;-83
2022/02/10 00:47:05;;;;;;;3.00;1.67;;;;;;;26.69;17.78;98858.38;5006558;28;20045;-83
2022/02/10 00:49:31;;;;;;;2.47;1.45;;;;;;;26.71;17.77;98866.38;5007552;28;20056;-83
2022/02/10 00:51:57;;;;;;;4.85;1.50;;;;;;;26.80;17.48;98863.00;5007097;28;20520;-83
2022/02/10 00:54:26;;;;;;;3.65;1.38;;;;;;;26.36;17.72;98867.88;5023229;28;20038;-83
2022/02/10 00:56:56;;;;;;;3.58;1.80;;;;;;;26.50;17.55;98867.59;4998836;28;20026;-84
2022/02/10 01:31:55;;;;;;;2.20;1.17;;;;;;;27.26;16.69;98831.78;5003726;28;20414;-83
2022/02/10 01:34:21;;;;;;;2.47;1.25;;;;;;;27.13;16.90;98825.25;5000302;28;20117;-83
2022/02/10 01:36:47;;;;;;;1.35;1.10;;;;;;;27.12;16.84;98829.31;5000462;28;20428;-84
2022/02/10 01:39:19;;;;;;;2.60;1.38;;;;;;;27.11;17.08;98825.69;4999433;28;20042;-84
2022/02/10 01:42:22;;;;;;;1.63;1.52;;;;;;;27.16;17.00;98813.09;4999817;28;20025;-84
2022/02/10 02:03:15;;;;;;;2.25;1.00;;;;;;;26.90;17.24;98794.38;5000866;28;20045;-83
2022/02/10 02:04:06;;;;;;;1.50;1.25;;;;;;;26.74;17.54;98797.91;5004748;28;20055;-83
2022/02/10 02:06:41;;;;;;;2.10;1.15;;;;;;;27.16;17.24;98804.66;5001715;28;20042;-83
2022/02/10 02:09:12;;;;;;;1.50;1.00;;;;;;;27.49;16.97;98802.69;4999459;28;20545;-83
2022/02/10 02:11:39;;;;;;;1.77;1.17;;;;;;;27.51;16.54;98803.84;5004573;28;20022;-83
2022/02/10 02:14:14;;;;;;;1.55;0.90;;;;;;;27.08;16.80;98806.81;4998952;28;20030;-83
2022/02/10 02:16:51;;;;;;;1.15;0.82;;;;;;;26.88;17.14;98802.47;4996365;28;20041;-83
2022/02/10 02:19:17;;;;;;;1.95;1.05;;;;;;;27.18;17.08;98807.81;4999251;28;20117;-83
2022/02/10 02:21:45;;;;;;;1.15;0.95;;;;;;;27.44;16.78;98804.00;4996177;28;20030;-83
2022/02/10 02:24:15;;;;;;;2.63;0.98;;;;;;;26.83;17.19;98802.97;5003735;28;20041;-83
2022/02/10 02:26:44;;;;;;;1.50;1.00;;;;;;;27.08;17.40;98803.22;4998106;28;20033;-83
2022/02/10 02:29:12;;;;;;;1.27;0.98;;;;;;;27.23;16.54;98802.47;5017078;28;20065;-83
2022/02/10 02:31:45;;;;;;;1.40;0.98;;;;;;;27.10;17.04;98804.38;5004127;28;20030;-83
2022/02/10 02:37:19;;;;;;;1.23;1.00;;;;;;;26.76;17.09;98800.31;5007211;28;20057;-83
2022/02/10 03:07:16;;;;;;;1.13;0.90;;;;;;;26.82;17.32;98798.56;5000050;28;20060;-83
2022/02/10 03:09:54;;;;;;;1.83;1.10;;;;;;;26.80;17.08;98795.38;5008619;28;20501;-83
2022/02/10 03:12:20;;;;;;;1.13;0.70;;;;;;;26.58;16.91;98798.63;5010538;28;20057;-83
2022/02/10 03:14:50;;;;;;;1.05;0.85;;;;;;;26.16;17.64;98807.13;5023739;28;20115;-83
2022/02/10 03:17:39;;;;;;;1.48;1.10;;;;;;;26.22;17.52;98806.19;5022363;28;20029;-83
2022/02/10 03:23:04;;;;;;;1.92;1.40;;;;;;;26.46;17.42;98799.28;5003822;28;20049;-83
2022/02/10 04:09:25;;;;;;;1.10;0.95;;;;;;;27.69;16.81;98773.16;4988780;28;20402;-83
2022/02/10 04:12:19;;;;;;;0.77;0.68;;;;;;;27.61;16.15;98776.59;4990134;28;20065;-83
2022/02/10 04:14:50;;;;;;;1.48;1.08;;;;;;;27.27;16.72;98769.31;4990991;28;20037;-83
2022/02/10 04:25:41;;;;;;;0.63;0.60;;;;;;;27.57;16.84;98761.78;4992331;28;20049;-83
2022/02/10 04:58:37;;;;;;;;;;;;;;;27.04;16.33;98751.78;4980276;28;20101;-83
2022/02/10 05:12:14;;;;;;;0.70;0.70;;;;;;;27.29;16.89;98740.69;5013300;28;20071;-83
2022/02/10 05:24:41;;;;;;;0.70;0.50;;;;;;;26.62;17.65;98751.47;5012503;28;20125;-83
2022/02/10 05:35:32;;;;;;;0.90;0.60;;;;;;;26.82;16.65;98753.47;5005559;28;20060;-84
2022/02/10 05:45:41;;;;;;;0.70;0.70;;;;;;;27.29;16.82;98741.47;5005945;28;20044;-83
2022/02/10 05:56:14;;;;;;;0.95;0.77;;;;;;;26.35;17.72;98747.25;5005608;28;20033;-83
2022/02/10 05:59:13;;;;;;;0.90;0.73;;;;;;;26.26;17.63;98749.81;5008892;28;20437;-84
2022/02/10 06:52:55;;;;;;;4.22;1.90;;;;;;;26.60;17.66;98753.94;5016422;28;20068;-83
2022/02/10 07:47:13;;;;;;;2.97;1.95;;;;;;;27.88;16.58;98732.72;4998126;28;20161;-83
2022/02/10 08:25:54;;;;;;;2.35;1.77;;;;;;;26.97;17.81;98733.00;5002615;28;20058;-83
2022/02/10 08:57:21;;;;;;;6.93;3.55;;;;;;;27.52;17.53;98714.34;5009747;28;20052;-83
2022/02/10 09:00:06;;;;;;;8.73;3.70;;;;;;;27.17;17.85;98707.53;5011625;28;20049;-83
2022/02/10 09:05:18;;;;;;;10.07;4.28;;;;;;;26.94;18.08;98697.22;5010220;28;20045;-83
2022/02/10 09:08:14;;;;;;;5.05;3.10;;;;;;;26.88;17.92;98693.38;5010121;28;20401;-83
2022/02/10 09:59:33;;;;;;;4.47;1.80;;;;;;;28.16;17.11;98669.06;4987268;28;20520;-84
2022/02/10 10:04:57;;;;;;;9.23;3.13;;;;;;;28.06;16.51;98672.97;5015943;28;20056;-84
2022/02/10 10:13:38;;;;;;;2.17;1.20;;;;;;;28.21;16.19;98657.22;5032085;28;20044;-83
2022/02/10 10:16:38;;;;;;;5.97;1.80;;;;;;;28.28;16.42;98653.38;5033538;28;20034;-83
2022/02/10 10:24:54;;;;;;;4.20;1.67;;;;;;;28.44;16.55;98637.13;5018373;28;20042;-84
2022/02/10 10:55:37;;;;;;;1.60;1.20;;;;;;;28.18;16.66;98579.03;4996568;28;20100;-84
2022/02/10 10:58:12;;;;;;;1.33;1.10;;;;;;;28.38;16.27;98567.53;5010206;28;20029;-84
2022/02/10 11:03:40;;;;;;;1.55;1.00;;;;;;;28.60;16.69;98566.41;5015157;28;20029;-84
2022/02/10 11:04:31;;;;;;;1.95;1.25;;;;;;;28.68;16.86;98564.94;5010869;28;20038;-84
2022/02/10 11:07:53;;;;;;;1.45;1.00;;;;;;;28.86;16.57;98560.72;5014656;28;20068;-84
2022/02/10 11:36:24;;;;;;;3.30;1.38;;;;;;;28.79;16.72;98525.03;5008208;28;20579;-84
2022/02/10 11:38:26;;;;;;;1.35;0.95;;;;;;;28.51;17.30;98506.16;4999872;28;20103;-84
2022/02/10 11:47:18;;;;;;;1.73;1.40;;;;;;;28.46;15.91;98478.47;5008557;28;20053;-85
2022/02/10 12:38:43;;;;;;;1.50;1.13;;;;;;;29.74;16.33;98399.88;5014212;28;20130;-84
2022/02/10 12:43:53;;;;;;;2.38;1.50;;;;;;;29.41;15.56;98399.53;5010615;28;20052;-84
2022/02/10 14:09:08;;;;;;;1.52;1.02;;;;;;;28.34;16.76;98329.59;5007510;28;20042;-85
2022/02/10 14:10:36;;;;;;;3.80;1.95;;;;;;;28.08;17.17;98332.50;5004590;28;20052;-84
2022/02/10 14:13:01;;;;;;;2.45;1.27;;;;;;;27.98;16.81;98335.66;5000252;28;20587;-84
2022/02/10 14:15:40;;;;;;;3.75;1.40;;;;;;;28.25;17.19;98344.44;5002426;28;20049;-84
2022/02/10 14:20:49;;;;;;;4.03;2.25;;;;;;;28.13;16.55;98335.97;5001693;28;20446;-84
2022/02/10 14:25:39;;;;;;;4.65;1.60;;;;;;;28.21;16.73;98326.81;5004213;28;20041;-84
2022/02/10 14:28:49;;;;;;;1.75;1.30;;;;;;;27.49;17.86;98323.19;5004293;28;20145;-82
2022/02/10 14:31:15;;;;;;;2.20;1.33;;;;;;;28.09;16.96;98322.00;5007235;28;20030;-82
2022/02/10 14:33:43;;;;;;;2.13;1.60;;;;;;;27.99;16.49;98321.13;5006876;28;20041;-82
2022/02/10 14:36:19;;;;;;;2.58;1.30;;;;;;;28.53;16.72;98325.69;5003659;28;20061;-82
2022/02/10 15:17:15;;;;;;;2.35;1.20;;;;;;;27.82;17.13;98299.13;5002670;28;20052;-83
2022/02/10 15:32:28;;;;;;;1.95;1.42;;;;;;;28.22;16.62;98279.59;5005951;28;20092;-82
2022/02/10 16:13:01;;;;;;;5.30;2.63;;;;;;;28.65;15.88;98242.94;4999772;28;20474;-82
2022/02/10 16:15:30;;;;;;;8.60;3.90;;;;;;;28.74;15.91;98235.28;5003712;28;20066;-82
2022/02/10 16:17:49;;;;;;;13.02;5.90;;;;;;;28.81;15.82;98236.25;5001959;28;20041;-82
2022/02/10 16:20:19;;;;;;;14.60;7.28;;;;;;;28.53;16.06;98238.91;4998202;28;20125;-82
2022/02/10 16:23:00;;;;;;;11.40;5.10;;;;;;;28.25;16.40;98233.50;5001725;28;20066;-82
2022/02/10 16:25:33;;;;;;;18.27;7.25;;;;;;;28.17;16.32;98224.50;5003852;28;20541;-83
2022/02/10 16:28:24;;;;;;;20.52;9.25;;;;;;;27.82;16.60;98226.53;5003197;28;20042;-83
2022/02/10 16:30:50;;;;;;;14.40;6.60;;;;;;;27.65;16.48;98219.47;5006151;28;20167;-83
2022/02/10 16:33:17;;;;;;;15.45;7.18;;;;;;;27.57;16.61;98215.31;5000296;28;20033;-83
2022/02/10 16:35:43;;;;;;;13.85;4.63;;;;;;;27.50;16.90;98214.75;4998497;28;20036;-83
2022/02/10 16:38:10;;;;;;;18.00;6.18;;;;;;;27.31;16.77;98205.28;5006055;28;20037;-83
2022/02/10 16:40:39;;;;;;;14.52;5.68;;;;;;;27.08;17.12;98208.44;4996496;28;20038;-83
2022/02/10 16:43:05;;;;;;;14.52;4.75;;;;;;;27.00;16.92;98199.44;4999174;28;20040;-84
2022/02/10 16:45:31;;;;;;;13.55;5.80;;;;;;;27.32;16.80;98179.47;4997520;28;20413;-83
2022/02/10 16:47:58;;;;;;;9.93;4.72;;;;;;;27.42;16.91;98188.84;5000183;28;20027;-83
2022/02/10 16:50:24;;;;;;;14.25;4.55;;;;;;;27.53;16.35;98189.25;5000159;28;20191;-84
2022/02/10 16:52:57;;;;;;;10.90;4.88;;;;;;;27.75;16.37;98192.91;5008804;28;20026;-83
2022/02/10 16:58:22;;;;;;;5.68;3.20;;;;;;;27.88;16.09;98202.13;5001535;28;20041;-83
2022/02/10 17:19:09;;;;;;;13.60;5.20;;;;;;;27.59;16.34;98187.44;5003283;28;20120;-81
2022/02/10 17:53:45;;;;;;;11.98;4.95;;;;;;;26.30;17.19;98177.00;4997440;28;20092;-82
2022/02/10 17:56:12;;;;;;;9.45;4.90;;;;;;;26.41;17.16;98180.31;5001102;28;20057;-82
2022/02/10 17:58:38;;;;;;;9.07;4.68;;;;;;;26.60;17.04;98173.72;5002978;28;20038;-82
2022/02/10 18:01:06;;;;;;;11.02;5.03;;;;;;;26.51;16.82;98176.38;5006975;28;20407;-83
2022/02/10 18:03:32;;;;;;;7.65;4.07;;;;;;;26.51;17.17;98203.78;5011000;28;20029;-82
2022/02/10 18:13:59;;;;;;;11.15;5.90;;;;;;;26.18;17.34;98208.75;5008077;28;20049;-81
2022/02/10 18:19:03;;;;;;;10.68;4.65;;;;;;;26.18;17.26;98208.75;5007382;28;20138;-82
2022/02/10 18:27:18;;;;;;;12.90;5.57;;;;;;;25.70;17.61;98217.28;5007881;28;20289;-82
2022/02/10 19:08:09;;;;;;;13.07;6.18;;;;;;;24.30;18.98;98222.13;5002956;28;20068;-83
2022/02/10 19:10:43;;;;;;;12.65;5.57;;;;;;;24.90;18.29;98213.19;5000030;28;20116;-82
2022/02/10 19:13:10;;;;;;;11.38;5.78;;;;;;;25.32;17.76;98217.78;5004162;28;20081;-81
2022/02/10 19:15:36;;;;;;;10.25;6.30;;;;;;;25.22;17.87;98221.69;5005917;28;20528;-82
2022/02/10 19:18:06;;;;;;;11.52;5.00;;;;;;;25.63;17.56;98215.44;4999403;28;20092;-82
2022/02/10 19:20:34;;;;;;;10.73;5.15;;;;;;;25.81;17.23;98223.44;4999453;28;20045;-80
2022/02/10 19:23:03;;;;;;;8.48;4.63;;;;;;;25.65;17.42;98227.03;5002198;28;20040;-81
2022/02/10 19:25:30;;;;;;;12.43;4.65;;;;;;;25.45;17.60;98223.53;5009518;28;20549;-81
2022/02/10 19:27:57;;;;;;;11.02;5.18;;;;;;;25.23;17.70;98228.06;5006461;28;20039;-81
2022/02/10 19:30:26;;;;;;;8.77;4.38;;;;;;;25.20;18.19;98226.94;5003459;28;20037;-81
2022/02/10 19:32:56;;;;;;;10.93;4.85;;;;;;;25.55;17.60;98230.13;5002967;28;20045;-82
2022/02/10 19:35:24;;;;;;;10.45;4.82;;;;;;;25.41;17.58;98225.63;5008800;28;20543;-81
2022/02/10 19:37:56;;;;;;;11.57;4.82;;;;;;;25.51;18.13;98218.19;5003910;28;20112;-81
2022/02/10 19:40:24;;;;;;;10.70;4.38;;;;;;;25.64;17.58;98224.66;5003738;28;20045;-80
2022/02/10 19:42:51;;;;;;;10.43;5.05;;;;;;;25.72;17.76;98217.66;5002990;28;20584;-80
2022/02/10 19:45:17;;;;;;;11.13;4.72;;;;;;;25.95;17.43;98214.59;5003373;28;20034;-83
2022/02/10 19:47:44;;;;;;;10.05;4.90;;;;;;;25.85;17.77;98207.22;5003717;28;20041;-82
2022/02/10 19:50:14;;;;;;;8.80;3.42;;;;;;;26.09;17.48;98212.16;5005600;28;20083;-82
2022/02/10 19:52:42;;;;;;;6.70;3.40;;;;;;;25.72;17.70;98212.78;5016873;28;20030;-82
2022/02/10 19:55:15;;;;;;;6.40;3.53;;;;;;;26.08;17.28;98204.19;5007414;28;20030;-82
2022/02/10 19:57:41;;;;;;;4.90;2.95;;;;;;;26.26;17.69;98204.47;5004115;28;20038;-83
2022/02/10 20:00:14;;;;;;;7.50;3.58;;;;;;;26.38;17.41;98215.00;5001341;28;20037;-83
2022/02/10 20:02:41;;;;;;;5.78;3.03;;;;;;;26.89;16.85;98206.66;5004366;28;20042;-84
2022/02/10 20:05:07;;;;;;;4.63;3.45;;;;;;;26.69;17.32;98207.63;5006141;28;20049;-82
2022/02/10 20:07:37;;;;;;;6.68;4.10;;;;;;;26.93;16.96;98207.34;5001558;28;20393;-82
2022/02/10 20:10:05;;;;;;;5.47;3.13;;;;;;;26.96;17.10;98200.78;5002778;28;20041;-82
2022/02/10 20:12:32;;;;;;;6.50;3.45;;;;;;;26.55;17.11;98210.88;5001626;28;20042;-82
2022/02/10 20:14:58;;;;;;;10.10;5.63;;;;;;;26.81;16.97;98208.91;5005132;28;20037;-81
2022/02/10 20:17:24;;;;;;;11.45;5.78;;;;;;;26.84;16.91;98216.44;5002603;28;20105;-81
2022/02/10 20:19:50;;;;;;;24.23;12.68;;;;;;;27.13;16.74;98213.53;5016986;28;20029;-81
2022/02/10 20:22:17;;;;;;;23.13;11.43;;;;;;;27.02;16.89;98211.06;5001901;28;20140;-82
2022/02/10 20:24:43;;;;;;;11.45;6.72;;;;;;;27.01;16.98;98205.84;5005500;28;20556;-81
2022/02/10 20:27:09;;;;;;;19.73;8.32;;;;;;;26.97;16.95;98208.00;4999648;28;20034;-82
2022/02/10 20:29:35;;;;;;;53.58;24.88;;;;;;;27.35;16.76;98218.00;4999658;28;20053;-80
2022/02/10 20:32:02;;;;;;;32.08;14.25;;;;;;;27.26;16.81;98206.63;5003859;28;20033;-82
2022/02/10 20:34:30;;;;;;;18.08;8.38;;;;;;;26.82;16.90;98207.66;5005285;28;20148;-82
2022/02/10 20:36:58;;;;;;;8.40;4.22;;;;;;;26.37;17.17;98213.41;5001748;28;20030;-83
2022/02/10 20:39:27;;;;;;;9.60;4.28;;;;;;;26.45;17.20;98228.06;5003145;28;20029;-83
2022/02/10 20:42:02;;;;;;;8.30;3.92;;;;;;;26.13;17.76;98226.19;5003241;28;20585;-82
2022/02/10 20:44:28;;;;;;;7.25;3.63;;;;;;;25.67;18.13;98227.38;5002499;28;20573;-82
2022/02/10 20:46:55;;;;;;;7.60;3.35;;;;;;;25.80;17.88;98227.47;5004097;28;21559;-82
2022/02/10 20:49:27;;;;;;;6.50;2.95;;;;;;;25.27;18.45;98220.38;5006254;28;20041;-82
2022/02/10 20:51:54;;;;;;;5.50;3.15;;;;;;;25.51;18.31;98223.81;5007203;28;20129;-82
2022/02/10 20:54:21;;;;;;;7.72;3.22;;;;;;;24.48;19.44;98223.31;5003573;28;20034;-82
2022/02/10 20:56:48;;;;;;;5.70;2.85;;;;;;;24.98;18.78;98222.25;5003466;28;20120;-82
2022/02/10 20:59:27;;;;;;;8.82;4.85;;;;;;;24.68;19.05;98220.50;5006046;28;20033;-82
2022/02/10 21:02:01;;;;;;;11.23;6.35;;;;;;;25.74;18.17;98218.00;5003010;28;20041;-82
2022/02/10 21:04:31;;;;;;;13.13;6.50;;;;;;;25.52;18.23;98216.94;5004064;28;20060;-82
2022/02/10 21:12:11;;;;;;;9.85;4.03;;;;;;;26.20;17.84;98216.75;5004671;28;20069;-82
2022/02/10 21:14:37;;;;;;;9.30;4.57;;;;;;;25.66;18.13;98219.38;5004769;28;20121;-82
2022/02/10 21:17:10;;;;;;;14.55;4.72;;;;;;;26.52;17.32;98217.41;5010173;28;20088;-82
2022/02/10 21:19:37;;;;;;;12.60;4.75;;;;;;;26.20;17.75;98213.94;5013437;28;20544;-82
2022/02/10 21:22:13;;;;;;;9.93;3.40;;;;;;;26.90;17.16;98227.97;5007955;28;20033;-82
2022/02/10 21:24:48;;;;;;;12.30;4.78;;;;;;;26.48;17.21;98224.38;5004258;28;20478;-82
2022/02/10 21:27:33;;;;;;;17.45;5.43;;;;;;;26.79;16.80;98211.41;5005125;28;20046;-82
2022/02/10 21:30:05;;;;;;;9.25;3.72;;;;;;;26.81;17.20;98216.56;5001577;28;20513;-82
2022/02/10 21:32:36;;;;;;;11.15;4.88;;;;;;;27.18;17.08;98212.97;5006698;28;20490;-82
2022/02/10 21:35:24;;;;;;;21.02;8.20;;;;;;;27.06;16.81;98216.56;5013941;28;20033;-82
2022/02/10 21:38:15;;;;;;;21.05;6.88;;;;;;;27.18;16.98;98215.78;5000508;28;20084;-82
2022/02/10 21:59:59;;;;;;;9.60;3.17;;;;;;;26.70;17.56;98228.13;5001628;28;20107;-82
2022/02/10 22:10:25;;;;;;;8.98;3.15;;;;;;;27.46;16.56;98234.63;4997861;28;20524;-82
2022/02/10 22:18:32;;;;;;;12.40;3.95;;;;;;;27.91;16.10;98237.88;4999381;28;20037;-82
2022/02/10 22:21:01;;;;;;;6.65;3.17;;;;;;;27.33;16.79;98245.09;4998197;28;20047;-82
2022/02/10 22:23:29;;;;;;;8.80;3.35;;;;;;;27.34;16.93;98239.00;4993770;28;20133;-82
2022/02/10 22:26:01;;;;;;;9.13;2.70;;;;;;;27.40;16.98;98247.69;5002234;28;20035;-82
2022/02/10 22:28:47;;;;;;;6.13;2.95;;;;;;;27.04;17.17;98238.78;4997504;28;20491;-82
2022/02/10 22:33:49;;;;;;;8.20;3.55;;;;;;;26.74;17.64;98252.16;4998269;28;20559;-82
2022/02/10 22:36:18;;;;;;;15.43;7.28;;;;;;;27.32;17.15;98240.69;4998476;28;20085;-82
2022/02/10 22:38:47;;;;;;;21.67;8.85;;;;;;;27.57;17.07;98249.16;5001899;28;20033;-82
2022/02/10 22:41:15;;;;;;;22.52;11.95;;;;;;;27.73;16.70;98253.84;4997646;28;20034;-82
2022/02/10 22:43:46;;;;;;;10.82;5.13;;;;;;;27.59;17.07;98255.13;4999764;28;20042;-82
2022/02/10 22:46:12;;;;;;;;;;;;;;;27.74;16.15;98263.91;5004454;28;20030;-82
2022/02/10 22:48:41;;;;;;;8.93;3.40;;;;;;;27.62;16.59;98257.06;5001702;28;19917;-82
2022/02/10 22:51:07;;;;;;;19.30;11.90;;;;;;;27.21;16.91;98262.81;5004792;28;20038;-82
2022/02/10 22:53:35;;;;;;;9.70;4.78;;;;;;;27.33;16.80;98268.44;5008874;28;20065;-82
2022/02/10 22:56:01;;;;;;;4.65;2.97;;;;;;;26.85;17.60;98277.22;5006818;28;20426;-82
2022/02/10 22:58:29;;;;;;;7.50;3.78;;;;;;;26.46;17.56;98272.69;5004431;28;20140;-82
2022/02/10 23:00:55;;;;;;;5.25;2.85;;;;;;;26.42;18.09;98274.03;5007924;28;20105;-82
2022/02/10 23:03:28;;;;;;;18.15;6.55;;;;;;;26.71;17.49;98272.75;5002850;28;20053;-82
2022/02/10 23:05:55;;;;;;;6.05;2.83;;;;;;;27.06;17.47;98272.94;5002233;28;20076;-82
2022/02/10 23:08:22;;;;;;;16.73;3.85;;;;;;;26.30;18.17;98278.34;5003334;28;20573;-82
2022/02/10 23:10:49;;;;;;;7.43;3.60;;;;;;;26.54;17.56;98281.72;5003923;28;20052;-82
2022/02/10 23:13:23;;;;;;;6.20;3.30;;;;;;;25.16;19.03;98282.44;5007033;28;20719;-82
2022/02/10 23:15:50;;;;;;;4.75;3.03;;;;;;;24.62;19.88;98286.81;5003069;28;20038;-82
2022/02/10 23:18:21;;;;;;;6.15;3.65;;;;;;;24.73;19.44;98287.38;5002634;28;20085;-82
2022/02/10 23:20:49;;;;;;;5.47;3.55;;;;;;;24.49;19.90;98288.69;5004684;28;20034;-82
2022/02/10 23:23:17;;;;;;;6.05;3.55;;;;;;;24.95;19.28;98291.34;5004491;28;20040;-82
2022/02/10 23:25:45;;;;;;;6.00;3.55;;;;;;;25.38;19.20;98280.72;5006539;28;20039;-82
2022/02/10 23:28:15;;;;;;;6.63;2.95;;;;;;;25.42;18.98;98287.03;5004291;28;20156;-82
2022/02/10 23:30:46;;;;;;;4.73;3.23;;;;;;;26.56;17.95;98296.94;5003664;28;20053;-82
2022/02/10 23:33:23;;;;;;;;;;;;;;;26.68;17.35;98289.75;4998493;28;20046;-82
2022/02/10 23:38:40;;;;;;;4.47;3.15;;;;;;;26.96;17.39;98294.56;5001926;28;20099;-82
2022/02/10 23:43:36;;;;;;;4.10;2.65;;;;;;;25.71;18.26;98295.59;5003156;28;20045;-82
2022/02/10 23:46:02;;;;;;;4.75;2.85;;;;;;;25.49;18.77;98302.16;5011914;28;20487;-82
2022/02/10 23:48:31;;;;;;;6.55;2.90;;;;;;;24.87;19.50;98306.78;5006758;28;20030;-82
2022/02/10 23:50:57;;;;;;;9.40;4.00;;;;;;;23.51;20.99;98289.25;4999055;28;20053;-82
2022/02/10 23:53:23;;;;;;;5.70;3.58;;;;;;;22.64;22.37;98318.06;5006239;28;20174;-82
2022/02/10 23:55:51;;;;;;;6.40;3.75;;;;;;;23.01;21.74;98313.63;5002837;28;20124;-82
